Time;durP1;ratioP1;P1;durP2;ratioP2;P2;SDS_P1;SDS_P2;PMS_P1;PMS_P2;Temp;Humidity;BMP_temperature;BMP_pressure;BME280_temperature;BME280_humidity;BME280_pressure;Samples;Min_cycle;Max_cycle;Signal;HPM_P1;HPM_P2
2022/09/13 00:01:27;;;;;;;;;8.50;8.50;;;;;22.45;57.21;100332.31;5097622;27;45435;-58
2022/09/13 00:03:52;;;;;;;;;8.50;7.75;;;;;22.45;57.44;100333.16;5097906;27;45976;-58
2022/09/13 00:06:19;;;;;;;;;9.00;9.00;;;;;22.44;57.01;100328.75;5084089;27;45330;-59
2022/09/13 00:08:45;;;;;;;;;6.00;6.00;;;;;22.42;57.07;100317.25;5092599;27;45491;-57
2022/09/13 00:11:22;;;;;;;;;7.00;7.00;;;;;22.38;57.08;100322.13;5096695;27;45315;-57
2022/09/13 00:13:48;;;;;;;;;11.50;8.25;;;;;22.44;57.15;100330.63;5097529;27;45392;-57
2022/09/13 00:16:16;;;;;;;;;6.00;6.00;;;;;22.44;57.60;100336.03;5096746;27;46580;-57
2022/09/13 00:18:42;;;;;;;;;7.00;7.00;;;;;22.42;57.06;100338.94;5097963;27;45409;-58
2022/09/13 00:21:12;;;;;;;;;6.00;6.00;;;;;22.43;57.13;100342.47;5106367;27;45587;-59
2022/09/13 00:23:37;;;;;;;;;7.75;7.75;;;;;22.40;56.90;100329.25;5088342;27;46467;-57
2022/09/13 00:26:09;;;;;;;;;6.25;6.25;;;;;22.38;56.68;100335.69;5090046;27;45414;-58
2022/09/13 00:28:35;;;;;;;;;5.00;4.00;;;;;22.36;56.44;100328.75;5095637;27;45274;-57
2022/09/13 00:31:03;;;;;;;;;6.00;6.00;;;;;22.36;56.52;100326.88;5093169;27;45486;-57
2022/09/13 00:33:29;;;;;;;;;4.00;4.00;;;;;22.34;56.84;100319.94;5096806;27;47389;-59
2022/09/13 00:35:54;;;;;;;;;10.25;6.25;;;;;22.30;56.25;100318.59;5095530;27;45426;-59
2022/09/13 00:38:20;;;;;;;;;5.00;5.00;;;;;22.28;56.70;100307.09;5091510;27;45463;-59
2022/09/13 00:40:45;;;;;;;;;5.00;5.00;;;;;22.28;57.08;100301.66;5090225;27;45488;-59
2022/09/13 00:43:39;;;;;;;;;4.25;4.25;;;;;22.25;56.98;100291.16;5096457;27;45567;-61
2022/09/13 00:46:04;;;;;;;;;4.50;4.50;;;;;22.23;56.71;100280.47;5095132;27;45412;-58
2022/09/13 00:48:33;;;;;;;;;8.00;8.00;;;;;22.24;56.87;100286.75;5080691;27;45416;-59
2022/09/13 00:51:01;;;;;;;;;6.00;6.00;;;;;22.26;56.98;100290.97;5089466;27;45298;-58
2022/09/13 00:53:31;;;;;;;;;7.00;6.00;;;;;22.24;56.73;100286.75;5080642;27;45498;-60
2022/09/13 00:56:00;;;;;;;;;6.25;6.25;;;;;22.23;56.53;100288.59;5085777;27;45477;-58
2022/09/13 00:58:40;;;;;;;;;4.25;4.25;;;;;22.23;56.67;100291.31;5095930;27;45642;-57
2022/09/13 01:01:10;;;;;;;;;4.75;4.75;;;;;22.23;56.43;100296.72;5094214;27;45542;-59
2022/09/13 01:03:36;;;;;;;;;6.25;4.75;;;;;22.23;56.65;100294.03;5089835;27;45324;-56
2022/09/13 01:06:10;;;;;;;;;6.00;6.00;;;;;22.24;56.19;100297.59;5086840;27;45421;-59
2022/09/13 01:08:38;;;;;;;;;4.75;4.75;;;;;22.21;56.57;100290.66;5091209;27;45455;-58
2022/09/13 01:11:10;;;;;;;;;4.50;4.50;;;;;22.18;56.33;100287.44;5094177;27;45518;-57
2022/09/13 01:13:37;;;;;;;;;5.25;5.25;;;;;22.23;56.61;100282.34;5096668;27;45767;-58
2022/09/13 01:16:03;;;;;;;;;5.00;5.00;;;;;22.23;56.40;100280.47;5095334;27;45328;-58
2022/09/13 01:18:29;;;;;;;;;3.75;3.75;;;;;22.23;56.86;100269.66;5096178;27;45507;-59
2022/09/13 01:21:03;;;;;;;;;7.00;5.50;;;;;22.25;56.66;100272.19;5095562;27;45369;-57
2022/09/13 01:23:50;;;;;;;;;6.75;6.75;;;;;22.22;56.85;100267.97;5096403;27;45350;-60
2022/09/13 01:26:37;;;;;;;;;5.00;5.00;;;;;22.22;57.06;100272.53;5090570;27;45468;-58
2022/09/13 01:29:33;;;;;;;;;3.75;3.75;;;;;22.17;57.00;100259.50;5080034;27;45495;-59
2022/09/13 01:32:23;;;;;;;;;7.00;5.50;;;;;22.21;56.60;100266.25;5096037;27;45405;-58
2022/09/13 01:35:22;;;;;;;;;7.25;6.50;;;;;22.21;56.77;100260.00;5095989;27;46105;-59
2022/09/13 01:37:58;;;;;;;;;5.50;5.50;;;;;22.19;56.59;100256.63;5074231;27;45467;-59
2022/09/13 01:40:50;;;;;;;;;3.75;3.75;;;;;22.17;57.42;100259.50;5095083;27;45589;-58
2022/09/13 01:43:49;;;;;;;;;6.00;4.75;;;;;22.11;57.57;100253.91;5087531;27;45366;-55
2022/09/13 01:46:57;;;;;;;;;3.25;3.25;;;;;22.06;57.16;100259.81;5091894;27;46090;-57
2022/09/13 01:49:38;;;;;;;;;4.00;4.00;;;;;22.05;57.24;100260.81;5034564;28;45563;-59
2022/09/13 01:52:41;;;;;;;;;5.00;5.00;;;;;22.02;57.81;100255.75;5087036;27;45459;-59
2022/09/13 01:55:17;;;;;;;;;5.00;5.00;;;;;21.99;57.72;100246.06;5095774;27;45594;-56
2022/09/13 01:58:02;;;;;;;;;5.75;5.75;;;;;21.98;58.24;100241.66;5096298;27;45492;-58
2022/09/13 02:00:35;;;;;;;;;5.50;5.50;;;;;21.99;58.13;100246.06;5093351;27;45571;-57
2022/09/13 02:03:17;;;;;;;;;4.25;4.25;;;;;21.95;58.48;100233.88;5080067;27;45526;-59
2022/09/13 02:05:58;;;;;;;;;3.50;3.50;;;;;21.94;58.38;100244.88;5095584;27;45342;-59
2022/09/13 02:08:46;;;;;;;;;4.00;3.00;;;;;21.93;58.48;100243.19;5075299;27;45591;-58
2022/09/13 02:11:17;;;;;;;;;4.00;4.00;;;;;21.92;58.35;100239.66;5083662;27;45266;-59
2022/09/13 02:13:53;;;;;;;;;4.75;4.75;;;;;21.92;58.55;100244.22;5085191;27;45381;-58
2022/09/13 02:16:25;;;;;;;;;4.00;4.00;;;;;21.87;58.46;100235.72;5090781;27;45221;-58
2022/09/13 02:18:57;;;;;;;;;3.00;3.00;;;;;21.84;58.68;100230.66;5095933;27;46153;-59
2022/09/13 02:21:32;;;;;;;;;5.00;5.00;;;;;21.79;58.86;100237.44;5095849;27;45491;-57
2022/09/13 02:24:05;;;;;;;;;5.00;5.00;;;;;21.77;58.66;100236.75;5096138;27;45412;-58
2022/09/13 02:26:34;;;;;;;;;4.75;4.75;;;;;21.73;58.45;100229.97;5094319;27;45630;-56
2022/09/13 02:29:06;;;;;;;;;5.00;4.00;;;;;21.70;58.64;100227.59;5094405;27;45391;-57
2022/09/13 02:32:01;;;;;;;;;3.25;3.25;;;;;21.69;58.84;100222.34;5091448;27;45231;-56
2022/09/13 02:34:40;;;;;;;;;5.00;5.00;;;;;21.68;58.74;100223.38;5086243;27;45302;-59
2022/09/13 02:37:08;;;;;;;;;2.50;1.50;;;;;21.63;58.66;100215.75;5092489;27;45512;-58
2022/09/13 02:39:39;;;;;;;;;4.75;4.75;;;;;21.61;59.24;100215.06;5094392;27;48023;-57
2022/09/13 02:42:10;;;;;;;;;5.50;4.25;;;;;21.59;58.66;100206.25;5093235;27;45558;-56
2022/09/13 02:45:00;;;;;;;;;4.00;4.00;;;;;21.56;58.84;100206.59;5095421;27;45399;-60
2022/09/13 02:47:51;;;;;;;;;3.50;3.50;;;;;21.52;58.76;100205.25;5095773;27;45368;-58
2022/09/13 02:50:32;;;;;;;;;3.25;3.25;;;;;21.55;58.68;100204.91;5087297;27;45521;-59
2022/09/13 02:53:08;;;;;;;;;1.50;1.50;;;;;21.53;58.27;100204.22;5076171;28;45770;-57
2022/09/13 02:55:42;;;;;;;;;6.00;4.50;;;;;21.56;58.49;100201.19;5086972;27;45427;-59
2022/09/13 02:58:26;;;;;;;;;7.00;4.00;;;;;21.53;58.69;100198.81;5100904;27;45402;-60
2022/09/13 03:00:52;;;;;;;;;5.25;4.25;;;;;21.46;58.48;100190.50;5093800;27;46214;-60
2022/09/13 03:03:17;;;;;;;;;5.50;2.50;;;;;21.51;58.45;100192.72;5098369;27;45411;-59
2022/09/13 03:05:43;;;;;;;;;3.00;3.00;;;;;21.52;58.35;100190.88;5096149;27;45384;-59
2022/09/13 03:08:11;;;;;;;;;4.00;4.00;;;;;21.48;58.62;100187.63;5087002;27;45583;-58
2022/09/13 03:11:03;;;;;;;;;3.00;3.00;;;;;21.46;58.30;100189.66;5115470;27;46051;-62
2022/09/13 03:13:50;;;;;;;;;4.50;3.50;;;;;21.54;58.06;100188.84;5099239;27;45322;-55
2022/09/13 03:16:47;;;;;;;;;5.00;5.00;;;;;21.56;58.15;100190.34;5098111;27;45343;-58
2022/09/13 03:19:34;;;;;;;;;5.50;4.00;;;;;21.58;57.75;100188.34;5097444;27;46914;-56
2022/09/13 03:22:17;;;;;;;;;4.00;4.00;;;;;21.57;57.79;100191.22;5079243;27;46838;-56
2022/09/13 03:25:13;;;;;;;;;3.33;3.33;;;;;21.53;57.75;100185.28;5090499;27;45340;-57
2022/09/13 03:28:00;;;;;;;;;4.00;4.00;;;;;21.54;57.92;100184.28;5100171;27;45443;-58
2022/09/13 03:30:26;;;;;;;;;3.00;3.00;;;;;21.53;58.11;100189.84;5096353;27;45462;-57
2022/09/13 03:33:19;;;;;;;;;4.00;3.00;;;;;21.53;57.80;100188.00;5099287;27;46085;-58
2022/09/13 03:36:05;;;;;;;;;4.00;4.00;;;;;21.57;57.92;100202.88;5096307;27;45385;-56
2022/09/13 03:38:42;;;;;;;;;5.00;5.00;;;;;21.60;58.04;100207.09;5099449;27;46037;-61
2022/09/13 03:41:17;;;;;;;;;5.00;5.00;;;;;21.57;57.98;100202.88;5076726;28;45321;-60
2022/09/13 03:43:49;;;;;;;;;6.00;4.67;;;;;21.60;57.82;100207.94;5094436;27;46191;-60
2022/09/13 03:46:20;;;;;;;;;4.25;4.00;;;;;21.62;58.00;100211.38;5089161;27;45339;-59
2022/09/13 03:48:46;;;;;;;;;4.00;3.00;;;;;21.55;58.04;100204.91;5099193;27;45491;-58
2022/09/13 03:51:13;;;;;;;;;3.75;3.25;;;;;21.59;58.00;100216.22;5096725;27;45533;-57
2022/09/13 03:53:46;;;;;;;;;4.67;4.00;;;;;21.60;58.36;100210.66;5100220;27;46241;-59
2022/09/13 03:56:18;;;;;;;;;4.25;4.25;;;;;21.64;58.04;100219.31;5099495;27;45466;-58
2022/09/13 03:58:45;;;;;;;;;4.50;4.50;;;;;21.65;57.93;100213.72;5086076;27;45217;-63
2022/09/13 04:01:10;;;;;;;;;5.00;4.00;;;;;21.63;57.93;100196.81;5086560;27;45364;-59
2022/09/13 04:03:37;;;;;;;;;3.67;3.33;;;;;21.66;58.36;100204.59;5079815;27;46352;-56
2022/09/13 04:06:03;;;;;;;;;4.00;4.00;;;;;21.62;58.40;100195.13;5091433;27;45335;-60
2022/09/13 04:08:29;;;;;;;;;6.00;6.00;;;;;21.57;58.42;100199.31;5099399;27;45419;-57
2022/09/13 04:10:54;;;;;;;;;4.00;4.00;;;;;21.53;58.43;100193.41;5095773;27;45493;-57
2022/09/13 04:13:21;;;;;;;;;3.00;3.00;;;;;21.48;58.10;100193.91;5098670;27;45410;-58
2022/09/13 04:15:47;;;;;;;;;6.33;5.00;;;;;21.50;58.81;100201.88;5079676;27;45597;-56
2022/09/13 04:18:12;;;;;;;;;4.50;3.00;;;;;21.47;59.06;100196.75;5091006;27;45428;-58
2022/09/13 04:20:37;;;;;;;;;5.00;5.00;;;;;21.47;58.79;100197.59;5097221;27;45628;-58
2022/09/13 04:23:03;;;;;;;;;5.00;5.00;;;;;21.48;59.09;100199.31;5097704;27;46489;-59
2022/09/13 04:25:29;;;;;;;;;4.33;4.33;;;;;21.47;58.99;100192.19;5097255;27;45250;-57
2022/09/13 04:27:57;;;;;;;;;4.00;4.00;;;;;21.49;59.09;100205.59;5096972;27;45230;-58
2022/09/13 04:30:22;;;;;;;;;5.00;3.00;;;;;21.49;59.29;100197.47;5094849;27;45476;-58
2022/09/13 04:32:48;;;;;;;;;6.00;6.00;;;;;21.51;58.99;100206.25;5092676;27;45934;-60
2022/09/13 04:35:18;;;;;;;;;5.00;5.00;;;;;21.48;59.43;100214.69;5098283;27;45449;-56
2022/09/13 04:37:44;;;;;;;;;4.00;4.00;;;;;21.42;59.34;100220.78;5097149;27;45338;-57
2022/09/13 04:40:10;;;;;;;;;5.00;5.00;;;;;21.44;59.00;100219.59;5097084;27;45276;-59
2022/09/13 04:42:36;;;;;;;;;6.00;5.00;;;;;21.35;59.31;100204.34;5096799;27;46075;-60
2022/09/13 04:45:01;;;;;;;;;3.00;3.00;;;;;21.34;59.48;100209.91;5097216;27;45285;-60
2022/09/13 04:47:27;;;;;;;;;4.25;4.25;;;;;21.35;59.12;100208.91;5094857;27;45563;-59
2022/09/13 04:49:53;;;;;;;;;5.00;3.25;;;;;21.40;58.79;100206.56;5097129;27;45522;-57
2022/09/13 04:52:18;;;;;;;;;7.25;3.00;;;;;21.35;59.31;100187.25;5094761;27;46078;-58
2022/09/13 04:54:44;;;;;;;;;5.75;4.00;;;;;21.39;58.96;100208.44;5095085;27;45777;-56
2022/09/13 04:57:11;;;;;;;;;3.67;3.67;;;;;21.41;58.80;100213.66;5097355;27;45488;-58
2022/09/13 04:59:36;;;;;;;;;3.75;3.75;;;;;21.39;58.61;100216.53;5094460;27;45483;-59
2022/09/13 05:02:02;;;;;;;;;5.33;5.33;;;;;21.36;58.75;100221.44;5092939;27;46255;-58
2022/09/13 05:04:27;;;;;;;;;4.00;4.00;;;;;21.42;58.66;100220.78;5097767;27;45407;-58
2022/09/13 05:06:52;;;;;;;;;7.67;5.33;;;;;21.44;58.88;100219.59;5083628;27;45396;-57
2022/09/13 05:09:18;;;;;;;;;5.00;5.00;;;;;21.44;58.86;100213.34;5078161;28;45491;-57
2022/09/13 05:11:43;;;;;;;;;5.33;5.00;;;;;21.37;58.65;100194.22;5085832;27;52860;-60
2022/09/13 05:14:10;;;;;;;;;4.00;4.00;;;;;21.37;58.46;100202.34;5093634;27;45502;-59
2022/09/13 05:16:35;;;;;;;;;6.75;6.00;;;;;21.35;58.38;100193.50;5090306;27;45591;-58
2022/09/13 05:19:01;;;;;;;;;11.00;7.00;;;;;21.34;58.84;100202.66;5097400;27;45222;-58
2022/09/13 05:21:27;;;;;;;;;5.00;5.00;;;;;21.39;58.40;100211.13;5096043;27;47021;-58
2022/09/13 05:23:54;;;;;;;;;6.00;4.25;;;;;21.42;58.18;100216.19;5085903;27;45323;-61
2022/09/13 05:26:24;;;;;;;;;6.00;4.00;;;;;21.43;58.64;100219.75;5090645;27;45681;-57
2022/09/13 05:28:49;;;;;;;;;4.00;4.00;;;;;21.35;58.19;100204.34;5097974;27;45431;-57
2022/09/13 05:31:27;;;;;;;;;5.00;5.00;;;;;21.45;58.38;100226.69;5096844;27;46051;-59
2022/09/13 05:33:57;;;;;;;;;6.00;6.00;;;;;21.46;58.55;100217.56;5091637;27;45254;-57
2022/09/13 05:36:23;;;;;;;;;4.33;4.33;;;;;21.46;58.41;100219.41;5092710;27;45440;-59
2022/09/13 05:38:51;;;;;;;;;3.25;3.00;;;;;21.46;58.48;100212.16;5075815;27;45386;-58
2022/09/13 05:41:17;;;;;;;;;6.00;4.33;;;;;21.47;58.86;100205.72;5090896;27;45457;-62
2022/09/13 05:43:42;;;;;;;;;4.50;3.25;;;;;21.41;58.10;100202.84;5098144;27;45281;-59
2022/09/13 05:46:13;;;;;;;;;5.00;5.00;;;;;21.49;58.43;100222.66;5096682;27;45223;-59
2022/09/13 05:48:39;;;;;;;;;6.67;6.67;;;;;21.51;58.29;100222.50;5097642;27;45546;-58
2022/09/13 05:51:14;;;;;;;;;6.33;5.00;;;;;21.53;58.21;100222.31;5079090;27;45573;-57
2022/09/13 05:53:41;;;;;;;;;7.00;7.00;;;;;21.52;58.53;100218.78;5096621;27;45268;-59
2022/09/13 05:56:10;;;;;;;;;8.67;8.33;;;;;21.52;58.54;100226.88;5097303;27;45368;-58
2022/09/13 05:58:40;;;;;;;;;7.50;6.50;;;;;21.46;59.15;100220.25;5096302;27;45386;-59
2022/09/13 06:01:06;;;;;;;;;7.00;7.00;;;;;21.47;59.09;100219.25;5096883;27;45302;-60
2022/09/13 06:03:31;;;;;;;;;6.00;6.00;;;;;21.49;59.14;100213.69;5079645;27;45443;-60
2022/09/13 06:05:57;;;;;;;;;7.00;7.00;;;;;21.51;59.29;100208.97;5085550;27;45277;-58
2022/09/13 06:08:28;;;;;;;;;8.00;7.33;;;;;21.56;59.61;100227.41;5090828;27;45449;-56
2022/09/13 06:11:05;;;;;;;;;9.67;9.67;;;;;21.54;60.28;100211.34;5083989;27;46277;-59
2022/09/13 06:13:31;;;;;;;;;9.67;9.67;;;;;21.56;60.90;100216.56;5085459;27;45223;-57
2022/09/13 06:15:59;;;;;;;;;7.00;7.00;;;;;21.54;60.93;100219.44;5096965;27;45286;-58
2022/09/13 06:18:25;;;;;;;;;9.00;9.00;;;;;21.49;60.85;100205.59;5095257;27;45465;-55
2022/09/13 06:20:56;;;;;;;;;8.00;7.75;;;;;21.57;60.51;100196.63;5090751;27;47937;-56
2022/09/13 06:23:21;;;;;;;;;8.00;8.00;;;;;21.57;60.85;100191.22;5076688;27;45302;-57
2022/09/13 06:25:47;;;;;;;;;9.67;8.00;;;;;21.52;60.94;100180.91;5092940;27;45324;-57
2022/09/13 06:28:12;;;;;;;;;8.00;8.00;;;;;21.49;61.05;100176.66;5091292;27;45654;-59
2022/09/13 06:30:38;;;;;;;;;10.33;8.67;;;;;21.56;60.89;100179.53;5081100;27;45875;-56
2022/09/13 06:33:03;;;;;;;;;7.33;7.33;;;;;21.57;61.34;100175.81;5093475;27;45592;-57
2022/09/13 06:35:28;;;;;;;;;14.00;9.33;;;;;21.62;60.86;100188.88;5105303;27;45782;-60
2022/09/13 06:37:56;;;;;;;;;9.00;9.00;;;;;21.62;60.31;100178.88;5086540;27;45658;-58
2022/09/13 06:40:22;;;;;;;;;12.67;10.67;;;;;21.62;60.28;100168.06;5094421;27;46216;-56
2022/09/13 06:42:48;;;;;;;;;5.67;5.67;;;;;21.68;59.75;100164.66;5072391;28;45520;-57
2022/09/13 06:45:13;;;;;;;;;10.00;7.33;;;;;21.67;59.11;100154.00;5076591;27;45263;-57
2022/09/13 06:47:38;;;;;;;;;9.00;9.00;;;;;21.72;58.33;100152.47;5083341;27;45385;-58
2022/09/13 06:50:05;;;;;;;;;9.25;8.50;;;;;21.74;58.32;100152.31;5081830;27;45869;-57
2022/09/13 06:52:31;;;;;;;;;6.33;6.33;;;;;21.70;58.12;100137.44;5094202;27;45379;-56
2022/09/13 06:54:56;;;;;;;;;9.33;7.33;;;;;21.71;57.65;100139.97;5081068;27;45447;-58
2022/09/13 06:57:22;;;;;;;;;7.00;7.00;;;;;21.71;57.74;100128.31;5091904;27;45577;-57
2022/09/13 06:59:47;;;;;;;;;5.67;5.67;;;;;21.72;57.91;100125.41;5085396;27;46187;-58
2022/09/13 07:02:16;;;;;;;;;5.00;5.00;;;;;21.69;58.17;100125.75;5095926;27;45340;-58
2022/09/13 07:04:41;;;;;;;;;4.50;4.50;;;;;21.65;58.45;100112.75;5092868;27;45778;-62
2022/09/13 07:07:07;;;;;;;;;7.00;7.00;;;;;21.65;58.32;100105.47;5091463;27;45801;-63
2022/09/13 07:09:35;;;;;;;;;5.25;5.25;;;;;21.65;58.51;100100.06;5094249;27;46127;-58
2022/09/13 07:12:00;;;;;;;;;9.33;8.33;;;;;21.63;58.34;100096.69;5075370;27;45210;-59
2022/09/13 07:14:28;;;;;;;;;4.00;4.00;;;;;21.66;58.26;100103.63;5075904;27;45850;-58
2022/09/13 07:16:57;;;;;;;;;5.00;5.00;;;;;21.67;58.47;100100.72;5078967;27;45303;-57
2022/09/13 07:19:25;;;;;;;;;5.00;5.00;;;;;21.62;58.69;100097.69;5091998;27;46259;-58
2022/09/13 07:21:52;;;;;;;;;5.00;5.00;;;;;21.66;58.42;100099.03;5081181;27;45515;-58
2022/09/13 07:24:19;;;;;;;;;5.33;4.00;;;;;21.69;58.39;100098.69;5083976;27;47151;-59
2022/09/13 07:26:45;;;;;;;;;5.00;5.00;;;;;21.71;58.18;100085.84;5092630;27;45568;-57
2022/09/13 07:29:15;;;;;;;;;9.00;8.67;;;;;21.68;58.46;100085.34;5099760;27;47041;-58
2022/09/13 07:31:43;;;;;;;;;6.00;6.00;;;;;21.76;58.31;100099.72;5085453;27;46109;-58
2022/09/13 07:34:20;;;;;;;;;5.00;5.00;;;;;21.81;58.43;100101.06;5100756;27;45463;-59
2022/09/13 07:36:47;;;;;;;;;5.00;3.75;;;;;21.85;58.20;100099.69;5082628;27;45339;-58
2022/09/13 07:39:13;;;;;;;;;5.33;4.00;;;;;21.90;58.00;100100.06;5093647;27;46466;-58
2022/09/13 07:41:39;;;;;;;;;4.50;4.50;;;;;21.94;57.82;100102.25;5092157;27;45401;-58
2022/09/13 07:44:06;;;;;;;;;4.75;4.75;;;;;22.06;57.81;100105.47;5082066;27;45210;-57
2022/09/13 07:46:36;;;;;;;;;6.00;4.50;;;;;22.13;57.68;100098.34;5095296;27;45502;-57
2022/09/13 07:49:02;;;;;;;;;7.00;7.00;;;;;22.26;57.27;100112.19;5087408;27;47722;-58
2022/09/13 07:51:32;;;;;;;;;5.75;5.00;;;;;22.33;57.38;100110.50;5098414;27;45392;-57
2022/09/13 07:54:01;;;;;;;;;9.25;8.50;;;;;22.41;56.50;100111.50;5098205;27;45332;-58
2022/09/13 07:56:29;;;;;;;;;5.75;5.50;;;;;22.47;56.53;100108.09;5099958;27;45388;-58
2022/09/13 07:58:55;;;;;;;;;4.50;4.50;;;;;22.53;56.50;100112.81;5099746;27;45274;-58
2022/09/13 08:01:25;;;;;;;;;6.00;6.00;;;;;22.55;56.24;100119.75;5094527;27;45387;-58
2022/09/13 08:04:02;;;;;;;;;6.25;6.00;;;;;22.61;56.27;100110.91;5100138;27;45374;-57
2022/09/13 08:06:30;;;;;;;;;5.50;4.25;;;;;22.67;56.07;100114.78;5100164;27;45365;-58
2022/09/13 08:08:56;;;;;;;;;6.00;5.00;;;;;22.73;55.76;100097.81;5098777;27;45335;-58
2022/09/13 08:11:26;;;;;;;;;5.00;5.00;;;;;22.79;55.72;100113.38;5099218;27;45659;-58
2022/09/13 08:13:52;;;;;;;;;6.25;6.00;;;;;22.82;55.51;100102.19;5099061;27;45541;-58
2022/09/13 08:16:22;;;;;;;;;4.00;2.75;;;;;22.90;55.33;100102.16;5097732;27;45428;-58
2022/09/13 08:18:50;;;;;;;;;7.25;5.50;;;;;22.90;55.07;100106.72;5098200;27;45277;-57
2022/09/13 08:21:16;;;;;;;;;6.75;6.50;;;;;22.96;54.89;100095.19;5098585;27;45407;-58
2022/09/13 08:23:42;;;;;;;;;6.00;6.00;;;;;23.00;54.66;100098.38;5098320;27;45410;-59
2022/09/13 08:26:09;;;;;;;;;4.00;4.00;;;;;23.06;55.01;100103.13;5098397;27;45515;-59
2022/09/13 08:28:36;;;;;;;;;5.00;5.00;;;;;23.03;54.43;100093.44;5098322;27;45423;-58
2022/09/13 08:31:14;;;;;;;;;7.75;6.50;;;;;23.13;54.59;100098.66;5096800;27;45390;-59
2022/09/13 08:33:44;;;;;;;;;5.00;5.00;;;;;23.17;54.30;100091.84;5098297;27;45400;-58
2022/09/13 08:36:10;;;;;;;;;5.25;5.25;;;;;23.20;54.05;100094.22;5098767;27;45407;-57
2022/09/13 08:38:35;;;;;;;;;4.25;4.25;;;;;23.26;54.27;100098.91;5098454;27;45377;-57
2022/09/13 08:41:05;;;;;;;;;3.75;3.75;;;;;23.28;53.51;100091.41;5098434;27;45328;-58
2022/09/13 08:43:42;;;;;;;;;4.50;4.50;;;;;23.25;53.97;100102.66;5098531;27;45427;-58
2022/09/13 08:46:19;;;;;;;;;4.00;4.00;;;;;23.28;53.94;100093.28;5098854;27;45391;-58
2022/09/13 08:48:49;;;;;;;;;7.25;7.25;;;;;23.22;53.21;100097.59;5100050;27;45595;-58
2022/09/13 08:51:30;;;;;;;;;4.25;4.00;;;;;23.39;53.50;100115.44;5098126;27;45354;-59
2022/09/13 08:53:56;;;;;;;;;3.75;2.75;;;;;23.44;53.71;100126.59;5098656;27;45319;-57
2022/09/13 08:56:25;;;;;;;;;3.00;2.25;;;;;23.49;53.61;100132.31;5098577;27;45541;-58
2022/09/13 08:59:02;;;;;;;;;4.25;4.00;;;;;23.56;53.45;100135.16;5098089;27;46216;-59
2022/09/13 09:01:30;;;;;;;;;4.00;4.00;;;;;23.63;53.19;100138.88;5095516;27;45869;-58
2022/09/13 09:04:33;;;;;;;;;7.00;4.00;;;;;23.71;52.90;100135.25;5094277;27;45414;-58
2022/09/13 09:07:34;;;;;;;;;5.75;5.75;;;;;23.84;52.32;100146.34;5102159;27;45554;-57
2022/09/13 09:10:05;;;;;;;;;5.25;5.25;;;;;23.92;52.53;100146.28;5091646;27;46142;-57
2022/09/13 09:12:48;;;;;;;;;5.25;5.25;;;;;23.98;52.67;100140.13;5086696;27;45365;-58
2022/09/13 09:15:22;;;;;;;;;6.25;5.25;;;;;24.05;52.01;100127.47;5106900;27;45550;-62
2022/09/13 09:17:57;;;;;;;;;5.50;3.75;;;;;24.09;52.27;100139.69;5097096;27;45512;-59
2022/09/13 09:20:35;;;;;;;;;5.00;5.00;;;;;24.14;52.25;100149.97;5095073;27;47594;-58
2022/09/13 09:23:16;;;;;;;;;6.00;4.25;;;;;24.18;51.79;100174.91;5093459;27;45351;-58
2022/09/13 09:25:45;;;;;;;;;4.50;4.50;;;;;24.09;51.34;100176.88;5090254;27;47090;-58
2022/09/13 09:28:18;;;;;;;;;4.00;4.00;;;;;24.09;51.92;100163.28;5090273;27;45345;-57
2022/09/13 09:31:06;;;;;;;;;9.25;7.25;;;;;24.10;55.03;100145.97;5086525;27;45446;-57
2022/09/13 09:33:53;;;;;;;;;5.40;5.40;;;;;24.03;55.26;100151.25;5097012;27;45428;-58
2022/09/13 09:36:31;;;;;;;;;8.20;5.00;;;;;23.95;57.25;100159.47;5096106;27;45410;-58
2022/09/13 09:38:57;;;;;;;;;5.75;4.50;;;;;23.94;55.52;100157.78;5090164;27;45718;-59
2022/09/13 09:41:27;;;;;;;;;5.50;5.50;;;;;23.96;56.88;100153.03;5093259;27;47775;-57
2022/09/13 09:44:16;;;;;;;;;5.50;5.50;;;;;23.97;56.63;100152.00;5089756;27;45419;-57
2022/09/13 09:46:45;;;;;;;;;6.25;4.00;;;;;23.97;57.25;100159.31;5092591;27;45557;-59
2022/09/13 09:52:09;;;;;;;;;4.75;4.75;;;;;24.02;55.79;100156.88;5078464;27;45702;-58
2022/09/13 09:54:37;;;;;;;;;5.00;5.00;;;;;24.19;56.19;100180.16;5092351;27;45404;-58
2022/09/13 09:57:03;;;;;;;;;4.25;4.25;;;;;24.27;55.74;100173.81;5091239;27;45507;-59
2022/09/13 09:59:32;;;;;;;;;10.50;6.25;;;;;24.28;55.72;100170.91;5086678;27;45551;-60
2022/09/13 10:02:14;;;;;;;;;7.00;4.75;;;;;24.29;55.29;100166.31;5093625;27;45412;-60
2022/09/13 10:04:39;;;;;;;;;5.20;5.20;;;;;24.35;55.51;100184.59;5073767;28;45299;-58
2022/09/13 10:07:19;;;;;;;;;8.25;6.25;;;;;24.39;55.33;100172.34;5086394;27;45311;-59
2022/09/13 10:10:00;;;;;;;;;10.75;7.75;;;;;24.47;56.05;100180.41;5106241;27;45520;-57
2022/09/13 10:12:28;;;;;;;;;10.00;9.00;;;;;24.54;55.34;100186.81;5099256;27;45870;-57
2022/09/13 10:15:19;;;;;;;;;5.00;5.00;;;;;24.55;54.11;100174.91;5085408;27;45326;-58
2022/09/13 10:18:14;;;;;;;;;6.75;6.75;;;;;24.68;54.31;100182.41;5085796;27;45421;-58
2022/09/13 10:20:39;;;;;;;;;7.00;6.25;;;;;24.78;54.13;100182.13;5093029;27;45381;-59
2022/09/13 10:23:19;;;;;;;;;6.50;6.25;;;;;24.86;53.46;100168.41;5085404;27;45330;-59
2022/09/13 10:25:57;;;;;;;;;6.20;6.20;;;;;24.98;53.90;100177.78;5087981;27;45431;-58
2022/09/13 10:28:24;;;;;;;;;8.40;5.00;;;;;25.09;53.53;100171.06;5087391;27;45421;-58
2022/09/13 10:31:09;;;;;;;;;8.25;6.75;;;;;25.12;53.97;100167.94;5082595;27;45500;-57
2022/09/13 10:33:41;;;;;;;;;12.00;10.25;;;;;25.22;53.51;100177.50;5086295;27;46252;-57
2022/09/13 10:36:17;;;;;;;;;9.50;8.00;;;;;25.19;53.31;100179.78;5093122;27;45460;-58
2022/09/13 10:38:56;;;;;;;;;7.50;7.50;;;;;25.18;52.95;100184.38;5085554;27;45560;-59
2022/09/13 10:41:26;;;;;;;;;8.75;7.00;;;;;25.13;53.31;100165.06;5096073;27;45267;-58
2022/09/13 10:43:59;;;;;;;;;8.20;6.80;;;;;25.19;52.94;100168.88;5085352;27;46104;-58
2022/09/13 10:46:29;;;;;;;;;8.60;7.60;;;;;25.21;52.98;100170.38;5107177;27;45568;-59
2022/09/13 10:48:55;;;;;;;;;11.00;9.25;;;;;25.15;52.27;100168.44;5086408;27;45525;-58
2022/09/13 10:51:26;;;;;;;;;8.00;8.00;;;;;25.15;52.46;100168.44;5090502;27;45667;-58
2022/09/13 10:54:21;;;;;;;;;6.75;6.75;;;;;25.23;52.41;100168.31;5086726;27;45418;-58
2022/09/13 10:56:48;;;;;;;;;7.00;5.60;;;;;25.29;51.58;100167.56;5077234;27;45405;-58
2022/09/13 10:59:28;;;;;;;;;6.75;6.75;;;;;25.37;51.91;100155.69;5081277;27;45349;-59
2022/09/13 11:02:05;;;;;;;;;4.00;4.00;;;;;25.48;51.09;100157.06;5094765;27;45663;-59
2022/09/13 11:04:56;;;;;;;;;6.00;6.00;;;;;25.52;51.19;100155.63;5096118;27;45434;-57
2022/09/13 11:07:35;;;;;;;;;5.00;5.00;;;;;25.55;51.18;100158.00;5093514;27;45799;-59
2022/09/13 11:10:06;;;;;;;;;6.20;5.20;;;;;25.59;50.64;100140.22;5089767;27;45487;-64
2022/09/13 11:12:51;;;;;;;;;7.00;7.00;;;;;25.63;49.37;100122.44;5084508;27;45774;-58
2022/09/13 11:15:17;;;;;;;;;5.50;5.50;;;;;25.79;49.69;100135.84;5086189;27;46939;-57
2022/09/13 11:18:12;;;;;;;;;5.25;5.25;;;;;25.92;49.96;100132.41;5092623;27;45618;-59
2022/09/13 11:20:49;;;;;;;;;7.20;6.00;;;;;26.11;49.04;100136.31;5067936;27;45351;-57
2022/09/13 11:23:36;;;;;;;;;5.40;4.00;;;;;26.21;48.34;100136.81;5088950;27;45477;-58
2022/09/13 11:26:25;;;;;;;;;6.60;5.60;;;;;26.28;47.83;100140.41;5093817;27;45457;-63
2022/09/13 11:29:23;;;;;;;;;7.00;5.60;;;;;26.40;48.09;100129.84;5079559;27;45248;-59
2022/09/13 11:32:12;;;;;;;;;6.00;5.20;;;;;26.49;47.60;100133.25;5080643;27;45404;-58
2022/09/13 11:35:16;;;;;;;;;6.00;4.50;;;;;26.59;46.93;100133.75;5079265;27;45734;-58
2022/09/13 11:37:56;;;;;;;;;6.60;5.00;;;;;26.60;47.23;100132.72;5096948;27;46445;-60
2022/09/13 11:40:46;;;;;;;;;6.60;5.00;;;;;26.60;46.62;100121.78;5085623;27;45298;-59
2022/09/13 11:43:40;;;;;;;;;9.60;8.20;;;;;26.59;47.31;100115.50;5083192;27;45563;-59
2022/09/13 11:46:23;;;;;;;;;3.75;3.50;;;;;26.64;47.43;100120.34;5094562;27;46111;-59
2022/09/13 11:49:39;;;;;;;;;7.60;7.60;;;;;26.67;46.54;100133.56;5098089;27;45742;-58
2022/09/13 11:52:09;;;;;;;;;5.00;5.00;;;;;26.70;47.32;100139.47;5083110;27;45673;-59
2022/09/13 11:55:23;;;;;;;;;13.00;10.40;;;;;26.73;46.11;100130.06;5088229;27;45837;-58